Time;durP1;ratioP1;P1;durP2;ratioP2;P2;SDS_P1;SDS_P2;PMS_P1;PMS_P2;Temp;Humidity;BMP_temperature;BMP_pressure;BME280_temperature;BME280_humidity;BME280_pressure;Samples;Min_cycle;Max_cycle;Signal;HPM_P1;HPM_P2
2023/07/12 00:02:22;;;;;;;;;;;;;;;26.03;100.00;100694.75;5091822;28;19912;-69
2023/07/12 00:04:47;;;;;;;;;;;;;;;25.94;100.00;100692.88;5107563;28;19918;-69
2023/07/12 00:07:13;;;;;;;;;;;;;;;25.74;100.00;100694.47;5108123;28;20389;-69
2023/07/12 00:12:41;;;;;;;;;;;;;;;25.56;100.00;100688.09;5092431;28;19958;-70
2023/07/12 00:15:08;;;;;;;;;;;;;;;25.59;100.00;100709.53;5092212;28;19912;-70
2023/07/12 00:17:34;;;;;;;;;;;;;;;25.55;100.00;100715.13;5092294;28;19915;-70
2023/07/12 00:19:59;;;;;;;;;;;;;;;25.37;100.00;100711.31;5092461;28;20247;-69
2023/07/12 00:25:29;;;;;;;;;;;;;;;25.10;100.00;100732.47;5092209;28;19942;-69
2023/07/12 00:27:55;;;;;;;;;;;;;;;24.90;100.00;100772.16;5091607;28;20017;-69
2023/07/12 00:30:21;;;;;;;;;;;;;;;24.39;100.00;100784.63;5074286;28;20393;-69
2023/07/12 00:32:51;;;;;;;;;;;;;;;24.56;100.00;100804.22;5092431;28;19954;-69
2023/07/12 00:38:20;;;;;;;;;;;;;;;24.27;100.00;100810.66;5092496;28;20392;-70
2023/07/12 00:43:53;;;;;;;;;;;;;;;24.33;100.00;100833.63;5092162;28;19959;-69
2023/07/12 00:49:28;;;;;;;;;;;;;;;24.16;100.00;100841.78;5092037;28;20021;-71
2023/07/12 00:51:59;;;;;;;;;;;;;;;24.39;100.00;100848.78;5107166;28;20370;-70
2023/07/12 00:54:26;;;;;;;;;;;;;;;24.06;100.00;100842.44;5073641;28;20038;-71
2023/07/12 00:56:51;;;;;;;;;;;;;;;24.31;100.00;100851.94;5091669;28;19916;-71
2023/07/12 01:02:23;;;;;;;;;;;;;;;23.90;100.00;100870.41;5095774;28;19932;-71
2023/07/12 01:04:49;;;;;;;;;;;;;;;23.90;100.00;100887.75;5076976;28;20007;-71
2023/07/12 01:07:16;;;;;;;;;;;;;;;23.85;100.00;100893.25;5095213;28;19919;-71
2023/07/12 01:09:42;;;;;;;;;;;;;;;24.00;100.00;100926.00;5095189;28;19942;-71
2023/07/12 01:12:07;;;;;;;;;;;;;;;23.99;100.00;100929.50;5095489;28;20383;-71
2023/07/12 01:14:32;;;;;;;;;;;;;;;24.04;100.00;100927.47;5095471;28;20385;-71
2023/07/12 01:16:59;;;;;;;;;;;;;;;24.14;100.00;100932.88;5077225;28;20295;-70
2023/07/12 01:19:25;;;;;;;;;;;;;;;23.68;100.00;100950.72;5076734;28;19916;-70
2023/07/12 01:21:52;;;;;;;;;;;;;;;24.00;100.00;100964.13;5095107;28;20431;-71
2023/07/12 01:24:18;;;;;;;;;;;;;;;23.78;100.00;100958.72;5095224;28;19918;-71
2023/07/12 01:26:45;;;;;;;;;;;;;;;23.98;100.00;100973.81;5094704;28;20010;-71
2023/07/12 01:32:20;;;;;;;;;;;;;;;23.88;100.00;100973.59;5095778;28;20012;-71
2023/07/12 01:34:45;;;;;;;;;;;;;;;24.05;100.00;100986.31;5094795;28;20015;-71
2023/07/12 01:37:11;;;;;;;;;;;;;;;23.88;100.00;100990.94;5095191;28;19995;-71
2023/07/12 01:39:37;;;;;;;;;;;;;;;23.88;100.00;100996.97;5094862;28;20007;-71
2023/07/12 01:45:05;;;;;;;;;;;;;;;23.66;100.00;101053.03;5094884;28;19960;-71
2023/07/12 01:47:30;;;;;;;;;;;;;;;23.64;100.00;101104.25;5076357;28;20336;-71
2023/07/12 01:49:56;;;;;;;;;;;;;;;23.30;100.00;101108.09;5094238;28;20370;-71
2023/07/12 01:52:21;;;;;;;;;;;;;;;23.45;100.00;101176.47;5094230;28;20298;-71
2023/07/12 01:54:46;;;;;;;;;;;;;;;23.63;100.00;101198.69;5076772;28;19928;-70
2023/07/12 01:57:12;;;;;;;;;;;;;;;23.53;100.00;101221.78;5094351;28;19912;-70
2023/07/12 01:59:37;;;;;;;;;;;;;;;23.74;100.00;101248.22;5109973;28;19912;-71
2023/07/12 02:02:03;;;;;;;;;;;;;;;23.44;100.00;101244.88;5094870;28;19919;-71
2023/07/12 02:07:30;;;;;;;;;;;;;;;23.48;100.00;101351.09;5094768;28;19949;-71
2023/07/12 02:10:08;;;;;;;;;;;;;;;23.39;100.00;101376.78;5094831;28;19912;-71
2023/07/12 02:12:33;;;;;;;;;;;;;;;23.62;100.00;101402.22;5094418;28;19912;-72
2023/07/12 02:18:02;;;;;;;;;;;;;;;23.42;100.00;101476.09;5094620;28;20405;-71
2023/07/12 02:20:28;;;;;;;;;;;;;;;23.12;100.00;101507.19;5076061;28;19919;-70
2023/07/12 02:22:53;;;;;;;;;;;;;;;22.88;100.00;101556.97;5094466;28;20287;-70
2023/07/12 02:25:20;;;;;;;;;;;;;;;23.45;100.00;101607.53;5075855;28;19995;-69
2023/07/12 02:27:46;;;;;;;;;;;;;;;23.37;100.00;101766.34;5094093;28;20400;-69
2023/07/12 02:30:13;;;;;;;;;;;;;;;23.19;100.00;101749.91;5094478;28;19916;-70
2023/07/12 02:32:38;;;;;;;;;;;;;;;23.28;100.00;101871.47;5094223;28;20263;-70
2023/07/12 02:35:04;;;;;;;;;;;;;;;23.37;100.00;101882.34;5075711;28;19923;-70
2023/07/12 02:37:29;;;;;;;;;;;;;;;22.87;100.00;101882.22;5094451;28;19912;-70
2023/07/12 02:39:55;;;;;;;;;;;;;;;23.27;100.00;101970.22;5109115;28;19912;-70
2023/07/12 02:42:20;;;;;;;;;;;;;;;23.41;100.00;101973.03;5093865;28;19911;-70
2023/07/12 02:44:45;;;;;;;;;;;;;;;23.24;100.00;102040.47;5109636;28;19962;-70
2023/07/12 02:47:11;;;;;;;;;;;;;;;23.39;100.00;102020.75;5093782;28;20320;-70
2023/07/12 02:52:39;;;;;;;;;;;;;;;23.54;100.00;101716.94;5093295;28;20416;-70
2023/07/12 02:58:07;;;;;;;;;;;;;;;23.15;100.00;101578.84;5093794;28;19915;-71
2023/07/12 03:03:35;;;;;;;;;;;;;;;23.18;100.00;101563.94;5093419;28;19915;-70
2023/07/12 03:06:04;;;;;;;;;;;;;;;22.84;100.00;101563.28;5093240;28;19912;-70
2023/07/12 03:08:31;;;;;;;;;;;;;;;22.86;100.00;101545.84;5073761;28;20481;-70
2023/07/12 03:11:01;;;;;;;;;;;;;;;23.16;100.00;101578.75;5108987;28;20366;-71
2023/07/12 03:16:29;;;;;;;;;;;;;;;23.12;100.00;101594.56;5093198;28;20499;-71
2023/07/12 03:21:57;;;;;;;;;;;;;;;22.80;100.00;101616.22;5092702;28;19915;-72
2023/07/12 03:24:22;;;;;;;;;;;;;;;22.93;100.00;101640.59;5093652;28;19916;-71
2023/07/12 03:26:47;;;;;;;;;;;;;;;23.10;100.00;101617.19;5093116;28;19987;-72
2023/07/12 03:29:12;;;;;;;;;;;;;;;22.77;100.00;101603.41;5092976;28;19912;-69
2023/07/12 03:31:38;;;;;;;;;;;;;;;22.61;100.00;101605.13;5093020;28;19912;-69
2023/07/12 03:34:03;;;;;;;;;;;;;;;23.07;100.00;101646.75;5108175;28;19997;-69
2023/07/12 03:36:29;;;;;;;;;;;;;;;23.23;100.00;101652.78;5092848;28;19973;-71
2023/07/12 03:38:55;;;;;;;;;;;;;;;23.11;100.00;101647.44;5093270;28;19916;-71
2023/07/12 03:44:23;;;;;;;;;;;;;;;22.33;100.00;101635.00;5094417;28;19915;-70
2023/07/12 03:46:48;;;;;;;;;;;;;;;22.88;100.00;101643.44;5080981;28;20354;-70
2023/07/12 03:49:13;;;;;;;;;;;;;;;23.05;100.00;101664.16;5099844;28;19913;-70
2023/07/12 03:51:39;;;;;;;;;;;;;;;22.86;100.00;101639.22;5092878;28;19908;-69
2023/07/12 03:54:04;;;;;;;;;;;;;;;23.01;100.00;101646.22;5092541;28;19922;-70
2023/07/12 03:56:29;;;;;;;;;;;;;;;23.34;100.00;101654.00;5092678;28;20014;-72
2023/07/12 03:58:54;;;;;;;;;;;;;;;23.28;100.00;101642.16;5092462;28;19912;-71
2023/07/12 04:01:20;;;;;;;;;;;;;;;23.50;100.00;101624.53;5092861;28;20370;-69
2023/07/12 04:03:46;;;;;;;;;;;;;;;23.09;100.00;101615.53;5092730;28;19912;-71
2023/07/12 04:09:14;;;;;;;;;;;;;;;23.69;100.00;101634.75;5092937;28;19918;-72
2023/07/12 04:11:41;;;;;;;;;;;;;;;23.72;100.00;101653.59;5092436;28;20007;-72
2023/07/12 04:14:07;;;;;;;;;;;;;;;23.56;100.00;101639.78;5092241;28;20437;-69
2023/07/12 04:16:32;;;;;;;;;;;;;;;23.76;100.00;101649.06;5092609;28;19947;-72
2023/07/12 04:18:57;;;;;;;;;;;;;;;23.66;100.00;101653.94;5074209;28;19970;-71
2023/07/12 04:24:25;;;;;;;;;;;;;;;23.48;100.00;101622.94;5092390;28;19965;-72
2023/07/12 04:29:53;;;;;;;;;;;;;;;23.68;100.00;101640.84;5092376;28;20006;-71
2023/07/12 04:35:22;;;;;;;;;;;;;;;23.99;100.00;101633.00;5096142;28;19915;-72
2023/07/12 04:37:48;;;;;;;;;;;;;;;24.81;100.00;101642.06;5096264;28;19912;-71
2023/07/12 04:40:14;;;;;;;;;;;;;;;24.23;100.00;101587.41;5096903;28;20378;-73
2023/07/12 04:42:39;;;;;;;;;;;;;;;24.73;100.00;101615.66;5095722;28;19987;-74
2023/07/12 04:45:05;;;;;;;;;;;;;;;24.67;100.00;101596.03;5078045;28;19912;-73
2023/07/12 04:47:30;;;;;;;;;;;;;;;24.44;100.00;101583.56;5095966;28;19915;-71
2023/07/12 04:49:55;;;;;;;;;;;;;;;24.61;100.00;101582.53;5096135;28;19916;-71
2023/07/12 04:52:21;;;;;;;;;;;;;;;25.04;100.00;101575.56;5077681;28;19916;-71
2023/07/12 04:54:46;;;;;;;;;;;;;;;24.91;100.00;101563.31;5095713;28;19919;-71
2023/07/12 05:00:15;;;;;;;;;;;;;;;25.21;100.00;101518.91;5095901;28;19984;-71
2023/07/12 05:02:41;;;;;;;;;;;;;;;25.25;100.00;101504.75;5094952;28;20015;-71
2023/07/12 05:05:06;;;;;;;;;;;;;;;25.54;100.00;101489.84;5096024;28;19995;-68
2023/07/12 05:07:31;;;;;;;;;;;;;;;25.91;100.00;101483.03;5096028;28;20347;-69
2023/07/12 05:13:00;;;;;;;;;;;;;;;26.26;100.00;101429.28;5095680;28;20341;-71
2023/07/12 05:15:25;;;;;;;;;;;;;;;26.55;100.00;101431.50;5095544;28;19916;-71
2023/07/12 05:17:50;;;;;;;;;;;;;;;26.57;100.00;101413.13;5111946;28;20270;-69
2023/07/12 05:20:16;;;;;;;;;;;;;;;26.40;100.00;101416.13;5110653;28;20463;-69
2023/07/12 05:22:43;;;;;;;;;;;;;;;26.54;100.00;101411.56;5110805;28;19916;-69
2023/07/12 05:25:09;;;;;;;;;;;;;;;26.98;100.00;101403.16;5095213;28;19912;-69
2023/07/12 05:27:34;;;;;;;;;;;;;;;26.90;100.00;101386.41;5077079;28;19912;-70
2023/07/12 05:30:00;;;;;;;;;;;;;;;27.21;100.00;101377.97;5095470;28;19912;-68
2023/07/12 05:32:26;;;;;;;;;;;;;;;27.33;100.00;101358.78;5095047;28;19919;-69
2023/07/12 05:34:51;;;;;;;;;;;;;;;27.30;100.00;101356.34;5095340;28;19912;-70
2023/07/12 05:37:17;;;;;;;;;;;;;;;27.51;100.00;101341.72;5110778;28;19912;-69
2023/07/12 05:39:42;;;;;;;;;;;;;;;27.50;100.00;101326.13;5110945;28;19912;-70
2023/07/12 05:42:07;;;;;;;;;;;;;;;28.00;100.00;101323.06;5094583;28;19919;-71
2023/07/12 05:44:33;;;;;;;;;;;;;;;28.15;100.00;101277.34;5094636;28;19912;-72
2023/07/12 05:46:58;;;;;;;;;;;;;;;28.22;100.00;101252.34;5094568;28;19923;-72
2023/07/12 05:49:24;;;;;;;;;;;;;;;28.49;100.00;101242.25;5095121;28;19919;-72
2023/07/12 05:54:52;;;;;;;;;;;;;;;28.17;100.00;101244.03;5092909;28;19925;-72
2023/07/12 06:00:20;;;;;;;;;;;;;;;28.38;100.00;101237.06;5094715;28;19915;-71
2023/07/12 06:02:46;;;;;;;;;;;;;;;28.88;100.00;101220.59;5094319;28;19913;-71
2023/07/12 06:05:11;;;;;;;;;;;;;;;29.16;100.00;101192.13;5094625;28;19912;-71
2023/07/12 06:07:36;;;;;;;;;;;;;;;29.33;100.00;101175.75;5076386;28;19920;-70
2023/07/12 06:13:04;;;;;;;;;;;;;;;29.92;100.00;101127.53;5094486;28;19998;-73
2023/07/12 06:15:30;;;;;;;;;;;;;;;29.44;100.00;101120.56;5075794;28;19977;-73
2023/07/12 06:17:56;;;;;;;;;;;;;;;29.82;100.00;101129.34;5110011;28;20029;-73
2023/07/12 06:20:21;;;;;;;;;;;;;;;29.59;100.00;101096.47;5094466;28;19912;-72
2023/07/12 06:22:47;;;;;;;;;;;;;;;30.23;100.00;101086.19;5093788;28;19994;-72
2023/07/12 06:28:15;;;;;;;;;;;;;;;30.82;100.00;101045.66;5094217;28;19923;-72
2023/07/12 06:30:40;;;;;;;;;;;;;;;30.61;100.00;101007.31;5109737;28;19908;-72
2023/07/12 06:33:05;;;;;;;;;;;;;;;30.67;100.00;101006.72;5076411;28;19943;-73
2023/07/12 06:35:30;;;;;;;;;;;;;;;30.96;100.00;100997.88;5093990;28;19912;-73
2023/07/12 06:37:56;;;;;;;;;;;;;;;31.23;100.00;100979.41;5109267;28;19908;-71
2023/07/12 06:40:21;;;;;;;;;;;;;;;30.82;100.00;100946.66;5093571;28;20049;-70
2023/07/12 06:42:47;;;;;;;;;;;;;;;31.38;100.00;100926.16;5093677;28;19918;-71
2023/07/12 06:45:13;;;;;;;;;;;;;;;31.87;100.00;100919.38;5093615;28;19961;-71
2023/07/12 06:47:38;;;;;;;;;;;;;;;31.95;100.00;100900.22;5075574;28;20340;-71
2023/07/12 06:50:04;;;;;;;;;;;;;;;31.59;100.00;100873.22;5093772;28;19973;-71
2023/07/12 06:52:29;;;;;;;;;;;;;;;31.97;100.00;100845.63;5109321;28;19923;-71
2023/07/12 06:54:54;;;;;;;;;;;;;;;32.17;100.00;100824.13;5109419;28;20283;-71
2023/07/12 06:57:20;;;;;;;;;;;;;;;32.13;100.00;100788.56;5092328;28;19912;-71
2023/07/12 06:59:45;;;;;;;;;;;;;;;32.56;100.00;100786.66;5093949;28;20266;-70
2023/07/12 07:02:10;;;;;;;;;;;;;;;32.81;100.00;100757.50;5093691;28;19916;-71
2023/07/12 07:04:36;;;;;;;;;;;;;;;32.99;100.00;100726.53;5093779;28;20414;-73
2023/07/12 07:10:04;;;;;;;;;;;;;;;33.31;100.00;100703.66;5093398;28;19914;-72
2023/07/12 07:12:29;;;;;;;;;;;;;;;33.40;100.00;100676.28;5092494;28;20013;-72
2023/07/12 07:14:54;;;;;;;;;;;;;;;32.83;100.00;100646.63;5092840;28;19970;-72
2023/07/12 07:17:20;;;;;;;;;;;;;;;33.40;100.00;100660.44;5093109;28;19969;-72
2023/07/12 07:22:48;;;;;;;;;;;;;;;33.29;100.00;100661.66;5093148;28;19965;-68
2023/07/12 07:25:14;;;;;;;;;;;;;;;32.98;100.00;100668.72;5092366;28;19916;-70
2023/07/12 07:27:39;;;;;;;;;;;;;;;33.41;100.00;100681.38;5107991;28;19912;-70
2023/07/12 07:30:05;;;;;;;;;;;;;;;33.46;100.00;100681.66;5092399;28;20003;-70
2023/07/12 07:35:33;;;;;;;;;;;;;;;33.18;100.00;100691.84;5093049;28;19957;-70
2023/07/12 07:37:58;;;;;;;;;;;;;;;33.58;100.00;100682.97;5092134;28;19912;-70
2023/07/12 07:40:23;;;;;;;;;;;;;;;33.73;100.00;100693.59;5093058;28;19912;-69
2023/07/12 07:42:48;;;;;;;;;;;;;;;33.39;100.00;100682.53;5092563;28;19967;-70
2023/07/12 07:45:14;;;;;;;;;;;;;;;33.99;100.00;100694.91;5092650;28;19916;-70
2023/07/12 07:47:39;;;;;;;;;;;;;;;33.54;100.00;100684.28;5091973;28;19919;-70
2023/07/12 07:50:05;;;;;;;;;;;;;;;33.44;100.00;100681.00;5074903;28;20266;-70
2023/07/12 07:52:31;;;;;;;;;;;;;;;34.24;100.00;100702.66;5091950;28;19977;-70
2023/07/12 07:54:56;;;;;;;;;;;;;;;34.18;100.00;100674.31;5074328;28;19923;-70
2023/07/12 08:00:23;;;;;;;;;;;;;;;33.93;100.00;100681.59;5092641;28;19931;-70
2023/07/12 08:02:49;;;;;;;;;;;;;;;34.39;100.00;100687.69;5092381;28;20366;-70
2023/07/12 08:05:17;;;;;;;;;;;;;;;34.27;100.00;100681.97;5092368;28;19920;-70
2023/07/12 08:07:44;;;;;;;;;;;;;;;34.38;100.00;100691.31;5094925;28;20007;-70
2023/07/12 08:10:12;;;;;;;;;;;;;;;34.81;100.00;100680.84;5100285;28;19912;-71
2023/07/12 08:12:37;;;;;;;;;;;;;;;34.55;100.00;100706.03;5099700;28;19911;-70
2023/07/12 08:15:03;;;;;;;;;;;;;;;34.79;100.00;100689.94;5099336;28;19912;-70
2023/07/12 08:17:29;;;;;;;;;;;;;;;34.25;100.00;100685.81;5099472;28;19916;-69
2023/07/12 08:22:58;;;;;;;;;;;;;;;34.03;100.00;100693.56;5099233;28;19915;-69
2023/07/12 08:25:24;;;;;;;;;;;;;;;33.98;100.00;100717.06;5080552;28;20369;-70
2023/07/12 08:27:49;;;;;;;;;;;;;;;34.36;100.00;100706.53;5098704;28;19962;-71
2023/07/12 08:30:14;;;;;;;;;;;;;;;34.37;100.00;100702.91;5098984;28;19966;-69
2023/07/12 08:32:39;;;;;;;;;;;;;;;34.76;100.00;100724.69;5098796;28;19935;-70
2023/07/12 08:35:05;;;;;;;;;;;;;;;33.74;100.00;100709.25;5098745;28;19916;-70
2023/07/12 08:37:30;;;;;;;;;;;;;;;33.85;100.00;100726.53;5099448;28;19912;-70
2023/07/12 08:39:55;;;;;;;;;;;;;;;33.46;100.00;100725.72;5114120;28;20362;-70
2023/07/12 08:45:26;;;;;;;;;;;;;;;34.25;100.00;100728.88;5098921;28;20076;-68
2023/07/12 08:47:54;;;;;;;;;;;;;;;34.48;100.00;100731.56;5098838;28;19920;-70
2023/07/12 08:50:19;;;;;;;;;;;;;;;34.49;100.00;100707.59;5099084;28;19916;-70
2023/07/12 08:52:45;;;;;;;;;;;;;;;34.65;100.00;100714.53;5098563;28;20343;-69
2023/07/12 08:55:20;;;;;;;;;;;;;;;35.68;100.00;100714.34;5098258;28;19916;-69
2023/07/12 08:58:02;;;;;;;;;;;;;;;35.54;100.00;100717.84;5080660;28;19919;-69
2023/07/12 09:00:30;;;;;;;;;;;;;;;35.50;100.00;100694.59;5080663;28;20332;-69
2023/07/12 09:02:55;;;;;;;;;;;;;;;34.65;100.00;100696.84;5080242;28;20002;-70
2023/07/12 09:05:22;;;;;;;;;;;;;;;35.02;100.00;100703.94;5114484;28;19952;-70
2023/07/12 09:08:13;;;;;;;;;;;;;;;34.64;100.00;100716.38;5098795;28;20002;-69
2023/07/12 09:10:39;;;;;;;;;;;;;;;34.53;100.00;100719.44;5049791;28;20362;-70
2023/07/12 09:13:04;;;;;;;;;;;;;;;35.25;100.00;100693.25;5098388;28;19915;-71
2023/07/12 09:15:31;;;;;;;;;;;;;;;35.65;100.00;100695.38;5098762;28;19994;-71
2023/07/12 09:21:00;;;;;;;;;;;;;;;35.90;100.00;100709.06;5094813;28;19915;-71
2023/07/12 09:23:30;;;;;;;;;;;;;;;34.13;100.00;100711.00;5076365;28;20003;-71
2023/07/12 09:25:56;;;;;;;;;;;;;;;35.21;100.00;100705.19;5095523;28;20011;-71
2023/07/12 09:28:22;;;;;;;;;;;;;;;35.32;100.00;100715.31;5095534;28;19952;-70
2023/07/12 09:33:53;;;;;;;;;;;;;;;34.88;100.00;100715.31;5095290;28;19914;-70
2023/07/12 09:36:18;;;;;;;;;;;;;;;36.17;100.00;100732.22;5095103;28;19912;-70
2023/07/12 09:38:43;;;;;;;;;;;;;;;36.21;100.00;100714.91;5077177;28;19934;-71
2023/07/12 09:41:10;;;;;;;;;;;;;;;35.26;100.00;100716.06;5095331;28;19947;-71
2023/07/12 09:43:37;;;;;;;;;;;;;;;35.01;100.00;100719.97;5095788;28;19923;-70
2023/07/12 09:46:06;;;;;;;;;;;;;;;34.72;100.00;100723.41;5076435;28;20022;-71
2023/07/12 09:48:43;;;;;;;;;;;;;;;34.64;100.00;100712.91;5095141;28;20373;-71
2023/07/12 09:54:21;;;;;;;;;;;;;;;36.12;100.00;100700.16;5094482;28;20293;-71
2023/07/12 09:56:46;;;;;;;;;;;;;;;35.73;100.00;100698.72;5076553;28;20387;-71
2023/07/12 09:59:21;;;;;;;;;;;;;;;35.80;100.00;100682.06;5094678;28;19955;-72
2023/07/12 10:04:52;;;;;;;;;;;;;;;35.51;100.00;100681.19;5094584;28;19951;-70
2023/07/12 10:07:31;;;;;;;;;;;;;;;34.97;100.00;100671.09;5075815;28;19912;-71
2023/07/12 10:09:57;;;;;;;;;;;;;;;35.32;100.00;100699.44;5094578;28;19913;-72
2023/07/12 10:15:28;;;;;;;;;;;;;;;36.09;100.00;100682.00;5094420;28;19996;-71
2023/07/12 10:17:54;;;;;;;;;;;;;;;35.67;100.00;100694.19;5094278;28;19970;-72
2023/07/12 10:20:23;;;;;;;;;;;;;;;35.87;100.00;100685.63;5094521;28;20016;-70
2023/07/12 10:25:55;;;;;;;;;;;;;;;35.73;100.00;100666.13;5094128;28;19981;-69
2023/07/12 10:28:25;;;;;;;;;;;;;;;34.45;100.00;100656.06;5093841;28;19912;-70
2023/07/12 10:30:51;;;;;;;;;;;;;;;35.41;100.00;100653.34;5092811;28;19966;-69
2023/07/12 10:33:23;;;;;;;;;;;;;;;36.63;100.00;100668.97;5093492;28;20362;-71
2023/07/12 10:38:51;;;;;;;;;;;;;;;35.78;100.00;100652.31;5094085;28;19919;-71
2023/07/12 10:41:20;;;;;;;;;;;;;;;35.17;100.00;100640.44;5093292;28;19912;-71
2023/07/12 10:43:47;;;;;;;;;;;;;;;35.62;100.00;100642.78;5093359;28;19912;-73
2023/07/12 10:46:21;;;;;;;;;;;;;;;34.50;100.00;100637.06;5075433;28;20348;-71
2023/07/12 10:48:50;;;;;;;;;;;;;;;35.18;100.00;100645.53;5075357;28;20011;-72
2023/07/12 10:54:27;;;;;;;;;;;;;;;35.21;100.00;100642.53;5091338;28;20017;-71
2023/07/12 10:56:54;;;;;;;;;;;;;;;34.56;100.00;100620.47;5093807;28;19916;-71
2023/07/12 10:59:30;;;;;;;;;;;;;;;36.16;100.00;100627.22;5093238;28;19959;-71
2023/07/12 11:01:56;;;;;;;;;;;;;;;34.80;100.00;100609.63;5075147;28;19928;-72
2023/07/12 11:04:25;;;;;;;;;;;;;;;35.95;100.00;100614.00;5075145;28;19912;-71
2023/07/12 11:07:00;;;;;;;;;;;;;;;36.21;100.00;100607.06;5074975;28;19919;-72
2023/07/12 11:12:30;;;;;;;;;;;;;;;36.03;100.00;100608.56;5093466;28;19970;-70
2023/07/12 11:18:09;;;;;;;;;;;;;;;36.16;100.00;100611.31;5093311;28;19961;-71
2023/07/12 11:20:54;;;;;;;;;;;;;;;36.56;100.00;100615.91;5093422;28;19912;-71
2023/07/12 11:26:32;;;;;;;;;;;;;;;36.55;100.00;100606.28;5093022;28;19919;-71
2023/07/12 11:29:24;;;;;;;;;;;;;;;36.84;100.00;100599.94;5071595;28;20400;-71
2023/07/12 11:35:11;;;;;;;;;;;;;;;36.97;100.00;100614.09;5092956;28;19915;-70
2023/07/12 11:37:37;;;;;;;;;;;;;;;36.72;100.00;100607.63;5092943;28;20393;-72
2023/07/12 11:40:29;;;;;;;;;;;;;;;36.97;100.00;100594.69;5074464;28;19962;-72
2023/07/12 11:42:55;;;;;;;;;;;;;;;36.94;100.00;100593.28;5070163;28;20297;-72
2023/07/12 11:45:22;;;;;;;;;;;;;;;36.80;100.00;100583.59;5092737;28;19912;-72
2023/07/12 11:50:51;;;;;;;;;;;;;;;36.60;100.00;100582.69;5092711;28;19971;-71
2023/07/12 11:53:17;;;;;;;;;;;;;;;37.38;100.00;100599.97;5074362;28;20484;-71
2023/07/12 11:55:46;;;;;;;;;;;;;;;37.06;100.00;100586.34;5092651;28;19916;-72
2023/07/12 11:58:16;;;;;;;;;;;;;;;36.89;100.00;100579.78;5074459;28;19916;-70
2023/07/12 12:03:47;;;;;;;;;;;;;;;37.40;100.00;100589.97;5092884;28;20421;-72
2023/07/12 12:06:13;;;;;;;;;;;;;;;36.57;100.00;100585.72;5092326;28;19919;-71
2023/07/12 12:08:40;;;;;;;;;;;;;;;36.64;100.00;100586.59;5074238;28;19912;-72
2023/07/12 12:11:07;;;;;;;;;;;;;;;36.35;100.00;100571.69;5074590;28;19951;-72
2023/07/12 12:16:47;;;;;;;;;;;;;;;37.12;100.00;100576.81;5092957;28;19919;-71
2023/07/12 12:22:23;;;;;;;;;;;;;;;36.98;100.00;100567.16;5092429;28;19923;-72
2023/07/12 12:24:49;;;;;;;;;;;;;;;37.20;100.00;100572.09;5092030;28;20368;-72
2023/07/12 12:27:22;;;;;;;;;;;;;;;37.04;100.00;100575.13;5092176;28;19916;-71
2023/07/12 12:29:51;;;;;;;;;;;;;;;37.46;100.00;100563.41;5092327;28;19935;-71
2023/07/12 12:32:17;;;;;;;;;;;;;;;37.17;100.00;100569.03;5092388;28;19912;-72
2023/07/12 12:34:47;;;;;;;;;;;;;;;37.28;100.00;100582.53;5092291;28;19912;-72
2023/07/12 12:37:23;;;;;;;;;;;;;;;37.81;100.00;100572.03;5074008;28;19913;-73
2023/07/12 12:40:16;;;;;;;;;;;;;;;37.63;100.00;100585.09;5092349;28;20057;-72
2023/07/12 12:43:03;;;;;;;;;;;;;;;37.49;100.00;100556.88;5088129;28;19919;-73
2023/07/12 12:45:33;;;;;;;;;;;;;;;37.34;100.00;100565.84;5092343;28;19912;-72
2023/07/12 12:47:59;;;;;;;;;;;;;;;37.65;100.00;100575.91;5074020;28;20366;-71
2023/07/12 12:53:27;;;;;;;;;;;;;;;36.98;100.00;100559.19;5092150;28;19969;-74
2023/07/12 12:59:03;;;;;;;;;;;;;;;37.75;100.00;100565.69;5095809;28;19919;-70
2023/07/12 13:04:31;;;;;;;;;;;;;;;38.06;100.00;100565.88;5095779;28;19931;-70
2023/07/12 13:06:56;;;;;;;;;;;;;;;37.27;100.00;100566.81;5095375;28;20358;-70
2023/07/12 13:09:23;;;;;;;;;;;;;;;37.60;100.00;100572.22;5095809;28;19913;-70
2023/07/12 13:11:49;;;;;;;;;;;;;;;37.47;100.00;100572.19;5076604;28;19908;-71
2023/07/12 13:17:19;;;;;;;;;;;;;;;37.04;100.00;100558.41;5095582;28;20058;-71
2023/07/12 13:19:45;;;;;;;;;;;;;;;37.79;100.00;100550.19;5095198;28;20049;-71
2023/07/12 13:22:11;;;;;;;;;;;;;;;36.83;100.00;100548.72;5077290;28;20360;-71
2023/07/12 13:24:36;;;;;;;;;;;;;;;37.21;100.00;100567.63;5095231;28;20275;-70
2023/07/12 13:30:12;;;;;;;;;;;;;;;37.68;100.00;100545.44;5095385;28;19916;-71
2023/07/12 13:32:38;;;;;;;;;;;;;;;37.36;100.00;100553.19;5077046;28;19912;-70
2023/07/12 13:35:03;;;;;;;;;;;;;;;37.25;100.00;100544.97;5095494;28;19912;-72
2023/07/12 13:37:30;;;;;;;;;;;;;;;37.68;100.00;100551.56;5076761;28;20262;-72
2023/07/12 13:39:55;;;;;;;;;;;;;;;37.20;100.00;100553.53;5095095;28;19923;-72
2023/07/12 13:42:21;;;;;;;;;;;;;;;37.70;100.00;100548.69;5076959;28;19912;-70
2023/07/12 13:44:46;;;;;;;;;;;;;;;37.17;100.00;100535.38;5095070;28;19959;-71
2023/07/12 13:47:15;;;;;;;;;;;;;;;36.51;100.00;100552.84;5094736;28;19943;-71
2023/07/12 13:49:41;;;;;;;;;;;;;;;37.37;100.00;100554.00;5094806;28;19912;-71
2023/07/12 13:52:10;;;;;;;;;;;;;;;37.55;100.00;100548.91;5095162;28;19985;-71
2023/07/12 13:54:37;;;;;;;;;;;;;;;37.75;100.00;100551.56;5076596;28;20361;-72
2023/07/12 13:57:03;;;;;;;;;;;;;;;36.91;100.00;100540.59;5094769;28;19951;-70
2023/07/12 13:59:28;;;;;;;;;;;;;;;36.91;100.00;100550.38;5076192;28;20308;-70
2023/07/12 14:01:54;;;;;;;;;;;;;;;37.96;100.00;100557.53;5110012;28;19975;-71
2023/07/12 14:04:19;;;;;;;;;;;;;;;37.09;100.00;100546.16;5094929;28;19912;-71
2023/07/12 14:09:47;;;;;;;;;;;;;;;37.23;100.00;100533.75;5094507;28;20282;-71
2023/07/12 14:15:17;;;;;;;;;;;;;;;38.14;100.00;100539.09;5094735;28;19918;-70
2023/07/12 14:17:42;;;;;;;;;;;;;;;37.27;100.00;100533.13;5075742;28;20294;-70
2023/07/12 14:20:07;;;;;;;;;;;;;;;36.49;100.00;100523.06;5076015;28;19919;-69
2023/07/12 14:22:33;;;;;;;;;;;;;;;36.56;100.00;100528.41;5094453;28;19956;-69
2023/07/12 14:28:03;;;;;;;;;;;;;;;37.20;100.00;100511.06;5094567;28;19962;-71
2023/07/12 14:33:34;;;;;;;;;;;;;;;37.09;100.00;100524.13;5094083;28;19961;-69
2023/07/12 14:36:00;;;;;;;;;;;;;;;37.73;100.00;100516.44;5094096;28;19912;-70
2023/07/12 14:38:26;;;;;;;;;;;;;;;37.57;100.00;100495.59;5075695;28;19927;-71
2023/07/12 14:40:51;;;;;;;;;;;;;;;37.30;100.00;100498.22;5094210;28;19939;-71
2023/07/12 14:46:20;;;;;;;;;;;;;;;37.40;100.00;100491.72;5093731;28;19962;-71
2023/07/12 14:48:45;;;;;;;;;;;;;;;36.90;100.00;100487.75;5093593;28;19955;-70
2023/07/12 14:51:15;;;;;;;;;;;;;;;37.03;100.00;100477.97;5109604;28;19919;-71
2023/07/12 14:53:41;;;;;;;;;;;;;;;37.18;100.00;100481.25;5093659;28;19952;-71
2023/07/12 14:59:12;;;;;;;;;;;;;;;37.49;100.00;100478.03;5093899;28;19930;-70
2023/07/12 15:04:39;;;;;;;;;;;;;;;37.13;100.00;100475.75;5093778;28;19999;-71
2023/07/12 15:07:05;;;;;;;;;;;;;;;37.31;100.00;100481.31;5093198;28;20002;-71
2023/07/12 15:09:30;;;;;;;;;;;;;;;37.06;100.00;100482.88;5093605;28;20261;-71
2023/07/12 15:11:55;;;;;;;;;;;;;;;37.17;100.00;100490.25;5092454;28;19999;-71
2023/07/12 15:17:24;;;;;;;;;;;;;;;36.38;100.00;100485.69;5092627;28;20396;-70
2023/07/12 15:19:50;;;;;;;;;;;;;;;36.66;100.00;100486.44;5074908;28;19908;-71
2023/07/12 15:22:15;;;;;;;;;;;;;;;37.15;100.00;100489.63;5093237;28;19918;-69
2023/07/12 15:24:40;;;;;;;;;;;;;;;36.82;100.00;100477.28;5092946;28;19908;-68
2023/07/12 15:30:12;;;;;;;;;;;;;;;36.50;100.00;100487.59;5092929;28;19914;-69
2023/07/12 15:32:38;;;;;;;;;;;;;;;36.96;100.00;100495.75;5093066;28;19920;-68
2023/07/12 15:35:04;;;;;;;;;;;;;;;36.80;100.00;100493.41;5093114;28;20370;-69
2023/07/12 15:37:30;;;;;;;;;;;;;;;36.80;100.00;100492.59;5074469;28;19959;-68